Time;durP1;ratioP1;P1;durP2;ratioP2;P2;SDS_P1;SDS_P2;PMS_P1;PMS_P2;Temp;Humidity;BMP_temperature;BMP_pressure;BME280_temperature;BME280_humidity;BME280_pressure;Samples;Min_cycle;Max_cycle;Signal;HPM_P1;HPM_P2
2023/05/11 00:02:14;;;;;;;2.67;2.33;;;;;;;9.19;61.28;99770.97;4963963;28;20022;-92
2023/05/11 00:04:40;;;;;;;4.28;2.35;;;;;;;9.19;61.53;99774.44;4979791;28;20503;-91
2023/05/11 00:07:08;;;;;;;5.65;2.75;;;;;;;9.25;61.57;99780.72;4979845;28;20018;-90
2023/05/11 00:09:34;;;;;;;4.00;2.40;;;;;;;9.27;61.17;99800.09;4947780;28;20030;-91
2023/05/11 00:12:01;;;;;;;5.00;2.70;;;;;;;9.08;61.80;99764.66;4963163;28;20117;-90
2023/05/11 00:14:27;;;;;;;4.85;3.05;;;;;;;9.10;61.39;99767.91;4947983;28;20076;-91
2023/05/11 00:16:52;;;;;;;7.10;2.83;;;;;;;8.93;61.38;99754.53;4979839;28;20433;-90
2023/05/11 00:19:18;;;;;;;3.63;2.78;;;;;;;9.06;61.34;99770.25;4947273;28;20026;-89
2023/05/11 00:21:43;;;;;;;2.80;2.30;;;;;;;8.94;61.55;99774.94;4963181;28;20038;-90
2023/05/11 00:24:09;;;;;;;3.17;2.58;;;;;;;8.79;61.82;99761.31;4979655;28;20045;-92
2023/05/11 00:26:34;;;;;;;4.80;2.70;;;;;;;8.75;61.88;99762.84;4963413;28;20026;-89
2023/05/11 00:29:00;;;;;;;5.45;2.65;;;;;;;8.79;61.96;99766.66;4966314;28;20105;-89
2023/05/11 00:31:25;;;;;;;5.03;2.65;;;;;;;9.03;61.10;99791.47;4982858;28;20089;-91
2023/05/11 00:33:53;;;;;;;7.50;2.45;;;;;;;8.74;61.32;99767.41;4966868;28;20037;-91
2023/05/11 00:36:18;;;;;;;3.55;2.47;;;;;;;8.84;60.87;99783.69;4998958;28;20084;-90
2023/05/11 00:38:44;;;;;;;3.95;2.63;;;;;;;8.69;60.88;99767.31;4998492;28;20018;-91
2023/05/11 00:41:09;;;;;;;3.90;2.42;;;;;;;8.62;61.04;99778.25;4983000;28;20053;-90
2023/05/11 00:43:35;;;;;;;5.35;2.65;;;;;;;8.74;60.44;99775.47;4982812;28;20026;-88
2023/05/11 00:46:01;;;;;;;3.53;2.42;;;;;;;8.74;60.08;99767.41;4982416;28;20431;-91
2023/05/11 00:48:27;;;;;;;3.03;2.20;;;;;;;8.64;60.33;99778.81;4966397;28;20503;-91
2023/05/11 00:50:52;;;;;;;2.90;2.30;;;;;;;8.66;60.04;99789.31;4982734;28;20021;-90
2023/05/11 00:53:18;;;;;;;6.40;2.70;;;;;;;8.48;59.91;99772.38;4965678;28;20033;-91
2023/05/11 00:55:43;;;;;;;4.22;2.70;;;;;;;8.54;60.30;99777.84;4981581;28;20029;-91
2023/05/11 00:58:08;;;;;;;4.50;2.40;;;;;;;8.62;59.80;99772.88;4982118;28;20026;-91
2023/05/11 01:00:35;;;;;;;3.80;2.30;;;;;;;8.54;59.97;99765.22;4965959;28;20033;-90
2023/05/11 01:03:00;;;;;;;3.33;2.40;;;;;;;8.83;59.37;99794.66;4982128;28;20067;-91
2023/05/11 01:05:48;;;;;;;2.88;2.10;;;;;;;8.64;59.39;99756.53;4982871;28;20435;-90
2023/05/11 01:08:18;;;;;;;4.97;2.10;;;;;;;8.76;59.52;99776.03;4966890;28;20025;-90
2023/05/11 01:11:07;;;;;;;4.43;2.25;;;;;;;8.81;59.62;99784.16;4965686;28;20400;-91
2023/05/11 01:13:41;;;;;;;4.57;2.20;;;;;;;8.79;59.57;99788.97;4981663;28;20484;-91
2023/05/11 01:16:19;;;;;;;3.08;2.15;;;;;;;8.63;60.25;99771.81;4965451;28;20033;-91
2023/05/11 01:18:46;;;;;;;3.63;2.50;;;;;;;8.78;59.90;99798.09;4965212;28;20017;-91
2023/05/11 01:21:14;;;;;;;5.45;2.72;;;;;;;8.69;59.43;99781.59;4981314;28;20022;-90
2023/05/11 01:24:02;;;;;;;4.47;2.35;;;;;;;8.67;59.75;99769.44;4966251;28;20108;-89
2023/05/11 01:26:49;;;;;;;5.80;2.50;;;;;;;8.74;60.21;99802.31;4984240;28;20119;-89
2023/05/11 01:29:21;;;;;;;3.78;2.80;;;;;;;8.44;61.26;99798.06;4997460;28;20440;-91
2023/05/11 01:31:46;;;;;;;4.40;2.67;;;;;;;8.28;61.55;99783.59;4997642;28;20492;-91
2023/05/11 01:34:20;;;;;;;3.85;2.38;;;;;;;8.19;61.88;99789.59;4981957;28;20037;-91
2023/05/11 01:36:55;;;;;;;3.05;2.33;;;;;;;8.08;62.13;99788.59;4967722;28;20077;-91
2023/05/11 01:39:44;;;;;;;5.40;2.80;;;;;;;8.05;62.59;99794.44;4966871;28;20026;-89
2023/05/11 01:42:09;;;;;;;3.45;2.58;;;;;;;8.01;62.65;99771.84;4968785;28;20113;-90
2023/05/11 01:44:37;;;;;;;8.55;3.05;;;;;;;7.96;62.55;99771.75;4982918;28;20476;-91
2023/05/11 01:47:03;;;;;;;3.95;2.50;;;;;;;7.93;62.85;99774.91;4965906;28;20469;-90
2023/05/11 01:49:29;;;;;;;3.20;2.58;;;;;;;7.93;63.10;99786.47;4981960;28;20032;-90
2023/05/11 01:51:55;;;;;;;5.18;2.70;;;;;;;7.97;63.23;99781.41;4981233;28;20030;-90
2023/05/11 01:54:20;;;;;;;6.05;2.88;;;;;;;7.98;63.02;99788.41;4981498;28;20045;-90
2023/05/11 01:56:46;;;;;;;6.60;2.83;;;;;;;7.83;63.20;99765.63;4964710;28;20053;-90
2023/05/11 01:59:13;;;;;;;4.07;2.78;;;;;;;7.81;63.32;99778.47;4965202;28;20026;-91
2023/05/11 02:01:38;;;;;;;5.43;2.88;;;;;;;7.90;63.45;99781.56;4997457;28;20396;-90
2023/05/11 02:04:04;;;;;;;3.22;2.67;;;;;;;7.85;63.64;99776.94;4981202;28;20032;-90
2023/05/11 02:06:29;;;;;;;3.80;2.95;;;;;;;7.73;63.17;99753.94;4980345;28;20052;-89
2023/05/11 02:08:54;;;;;;;5.53;2.50;;;;;;;7.76;63.35;99777.56;4997359;28;20026;-90
2023/05/11 02:11:21;;;;;;;5.95;3.20;;;;;;;7.79;63.08;99775.22;4997042;28;20396;-90
2023/05/11 02:13:47;;;;;;;3.42;2.58;;;;;;;7.77;63.05;99773.84;4980762;28;20022;-90
2023/05/11 02:16:12;;;;;;;3.90;2.88;;;;;;;7.83;63.40;99781.72;4996608;28;20033;-90
2023/05/11 02:18:38;;;;;;;5.70;2.85;;;;;;;7.90;63.57;99790.41;4980380;28;20099;-90
2023/05/11 02:21:04;;;;;;;2.95;2.47;;;;;;;7.82;63.21;99773.91;4980331;28;20033;-90
2023/05/11 02:23:30;;;;;;;4.90;2.90;;;;;;;7.86;63.45;99772.38;4976841;28;20052;-90
2023/05/11 02:25:55;;;;;;;5.53;3.20;;;;;;;7.76;63.92;99761.47;4983548;28;20515;-90
2023/05/11 02:28:21;;;;;;;3.67;3.08;;;;;;;7.82;64.27;99780.13;4979670;28;20030;-90
2023/05/11 02:30:49;;;;;;;5.07;3.30;;;;;;;7.91;65.25;99783.22;4961358;28;20104;-90
2023/05/11 02:33:21;;;;;;;4.00;2.67;;;;;;;7.79;64.64;99772.53;4980218;28;20488;-90
2023/05/11 02:35:46;;;;;;;9.57;3.40;;;;;;;7.84;65.23;99778.00;4980999;28;20465;-90
2023/05/11 02:38:12;;;;;;;5.05;3.50;;;;;;;7.86;66.28;99797.34;4964044;28;20025;-91
2023/05/11 02:40:48;;;;;;;4.97;3.47;;;;;;;7.69;65.96;99772.34;4980482;28;20025;-91
2023/05/11 02:43:17;;;;;;;5.38;3.45;;;;;;;7.66;66.28;99772.84;4964102;28;20028;-90
2023/05/11 02:45:43;;;;;;;4.65;3.42;;;;;;;7.62;66.69;99785.09;4964810;28;20074;-90
2023/05/11 02:48:11;;;;;;;4.88;3.40;;;;;;;7.52;66.74;99780.34;4964886;28;20117;-90
2023/05/11 02:50:38;;;;;;;6.82;3.38;;;;;;;7.43;67.68;99785.25;4964602;28;20050;-90
2023/05/11 02:53:06;;;;;;;4.75;3.30;;;;;;;7.45;67.35;99777.81;4964395;28;20022;-90
2023/05/11 02:55:31;;;;;;;5.28;3.20;;;;;;;7.46;67.52;99786.66;4981073;28;20357;-90
2023/05/11 02:57:57;;;;;;;6.22;2.80;;;;;;;7.61;67.36;99796.84;4964402;28;20029;-90
2023/05/11 03:00:23;;;;;;;5.40;2.83;;;;;;;7.56;67.08;99792.19;4980215;28;20033;-90
2023/05/11 03:02:48;;;;;;;4.85;2.92;;;;;;;7.63;66.79;99784.81;4999670;28;20025;-90
2023/05/11 03:05:13;;;;;;;3.17;2.58;;;;;;;7.63;66.38;99790.19;5001003;28;20026;-90
2023/05/11 03:07:39;;;;;;;4.38;3.22;;;;;;;7.49;67.12;99772.75;5002236;28;20473;-90
2023/05/11 03:10:07;;;;;;;4.95;3.38;;;;;;;7.53;67.24;99783.81;4985483;28;20018;-90
2023/05/11 03:12:34;;;;;;;4.53;3.22;;;;;;;7.57;67.45;99793.81;5002657;28;20021;-89
2023/05/11 03:15:00;;;;;;;5.22;3.17;;;;;;;7.66;66.51;99784.38;5002806;28;20029;-90
2023/05/11 03:17:26;;;;;;;6.30;3.67;;;;;;;7.79;65.36;99785.94;5002326;28;20018;-90
2023/05/11 03:19:52;;;;;;;4.05;3.25;;;;;;;7.63;66.64;99782.16;4969279;28;20382;-89
2023/05/11 03:22:17;;;;;;;6.72;3.80;;;;;;;7.68;65.72;99787.63;4984136;28;20212;-91
2023/05/11 03:24:43;;;;;;;5.60;3.35;;;;;;;7.66;64.12;99789.72;5000750;28;20017;-91
2023/05/11 03:27:08;;;;;;;7.13;3.05;;;;;;;7.68;63.04;99781.44;4984571;28;20077;-91
2023/05/11 03:29:37;;;;;;;4.45;3.00;;;;;;;7.73;63.50;99783.41;4983750;28;20054;-91
2023/05/11 03:32:03;;;;;;;5.18;3.58;;;;;;;7.79;63.69;99785.13;4983038;28;20129;-90
2023/05/11 03:35:22;;;;;;;4.07;2.78;;;;;;;8.10;61.71;99803.38;4984297;28;20021;-92
2023/05/11 03:37:47;;;;;;;3.75;2.83;;;;;;;8.06;61.45;99798.75;4999354;28;20022;-92
2023/05/11 03:40:16;;;;;;;3.40;2.72;;;;;;;8.14;60.54;99802.94;4982993;28;20022;-91
2023/05/11 03:42:44;;;;;;;3.70;2.90;;;;;;;8.06;60.40;99771.94;4964098;28;20045;-93
2023/05/11 03:45:09;;;;;;;6.25;2.50;;;;;;;8.38;58.27;99803.59;4949117;28;20022;-92
2023/05/11 03:47:38;;;;;;;5.05;2.60;;;;;;;8.34;58.07;99783.66;4968794;28;20472;-92
2023/05/11 03:50:03;;;;;;;5.05;2.47;;;;;;;8.29;57.93;99766.41;4982781;28;20117;-92
2023/05/11 03:52:29;;;;;;;3.25;2.30;;;;;;;8.36;55.96;99784.22;4984283;28;20045;-92
2023/05/11 03:54:55;;;;;;;10.20;3.38;;;;;;;8.53;56.95;99795.00;4966648;28;20108;-93
2023/05/11 03:57:20;;;;;;;5.10;3.25;;;;;;;8.49;57.30;99781.28;4962095;28;20045;-92
2023/05/11 03:59:46;;;;;;;9.30;3.47;;;;;;;8.64;56.00;99781.50;4958609;28;20030;-92
2023/05/11 04:02:12;;;;;;;5.22;3.47;;;;;;;8.90;56.54;99801.47;4981958;28;20509;-92
2023/05/11 04:04:37;;;;;;;4.72;3.35;;;;;;;8.83;59.90;99808.06;4979920;28;20511;-91
2023/05/11 04:07:05;;;;;;;5.82;4.20;;;;;;;8.74;61.12;99810.38;4958747;28;20461;-90
2023/05/11 04:09:31;;;;;;;8.95;3.95;;;;;;;8.62;60.08;99797.03;4978691;28;20480;-91
2023/05/11 04:11:58;;;;;;;5.38;2.92;;;;;;;8.79;59.81;99817.69;4960049;28;20030;-91
2023/05/11 04:14:23;;;;;;;4.05;3.05;;;;;;;8.67;59.33;99804.34;4948684;28;20109;-90
2023/05/11 04:16:49;;;;;;;11.20;2.95;;;;;;;8.72;58.77;99790.22;4952515;28;20058;-91
2023/05/11 04:31:57;;;;;;;6.10;2.80;;;;;;;9.15;58.51;99805.59;5050472;28;20034;-96
2023/05/11 04:47:41;;;;;;;8.40;3.80;;;;;;;9.63;55.78;99820.16;5102598;23;20062;-96
2023/05/11 04:55:38;;;;;;;6.07;2.63;;;;;;;9.63;54.71;99805.88;5009752;28;20046;-96
2023/05/11 04:58:04;;;;;;;5.60;2.35;;;;;;;9.82;52.80;99846.72;4994748;28;20102;-94
2023/05/11 05:00:35;;;;;;;6.63;2.42;;;;;;;9.68;53.06;99816.72;4974977;28;20077;-96
2023/05/11 05:03:07;;;;;;;3.88;2.42;;;;;;;9.96;51.79;99829.13;5009747;28;20030;-95
2023/05/11 05:05:52;;;;;;;3.35;2.25;;;;;;;9.81;51.98;99818.19;5117073;23;20422;-95
2023/05/11 05:08:36;;;;;;;2.65;2.03;;;;;;;9.79;51.27;99788.06;4947445;28;20050;-95
2023/05/11 05:17:34;;;;;;;2.83;1.95;;;;;;;10.05;50.36;99810.66;4986284;28;20041;-96
2023/05/11 05:23:05;;;;;;;4.38;1.88;;;;;;;10.10;49.97;99798.03;5391599;23;20086;-96
2023/05/11 05:25:30;;;;;;;2.47;1.83;;;;;;;10.15;49.15;99797.31;4948431;28;20473;-95
2023/05/11 05:27:56;;;;;;;2.88;1.80;;;;;;;10.26;48.28;99808.97;4952518;28;20054;-96
2023/05/11 05:30:21;;;;;;;3.20;1.75;;;;;;;10.39;48.55;99827.41;4983059;28;20037;-95
2023/05/11 05:32:47;;;;;;;4.10;2.00;;;;;;;10.46;49.46;99822.63;4938592;28;20034;-95
2023/05/11 05:35:13;;;;;;;2.38;1.40;;;;;;;10.36;49.14;99789.44;4934401;28;20045;-88
2023/05/11 05:37:38;;;;;;;4.75;2.00;;;;;;;10.60;49.34;99796.06;4974419;28;20477;-90
2023/05/11 05:40:04;;;;;;;2.95;1.83;;;;;;;10.94;47.04;99811.13;4946093;28;20401;-91
2023/05/11 05:42:30;;;;;;;4.47;2.38;;;;;;;11.00;47.96;99819.00;4937668;28;20177;-91
2023/05/11 05:44:55;;;;;;;3.28;2.10;;;;;;;11.09;47.58;99814.72;4939712;28;20030;-90
2023/05/11 05:47:21;;;;;;;3.78;2.20;;;;;;;11.15;47.50;99814.75;4944605;28;20038;-91
2023/05/11 05:49:46;;;;;;;3.42;1.77;;;;;;;11.21;47.58;99811.81;4959202;28;20027;-89
2023/05/11 05:52:15;;;;;;;2.63;1.73;;;;;;;11.41;47.57;99831.88;4951313;28;20645;-91
2023/05/11 05:54:40;;;;;;;1.95;1.60;;;;;;;11.50;46.92;99823.00;4954051;28;20098;-90
2023/05/11 05:57:08;;;;;;;3.40;2.20;;;;;;;11.48;47.26;99819.78;4939973;28;20023;-91
2023/05/11 05:59:33;;;;;;;3.40;1.77;;;;;;;11.61;46.92;99806.88;4958101;28;20037;-89
2023/05/11 06:01:59;;;;;;;2.17;1.60;;;;;;;11.71;47.56;99825.78;4975697;28;20031;-89
2023/05/11 06:04:24;;;;;;;5.72;2.63;;;;;;;11.70;47.35;99816.06;4974014;28;20029;-89
2023/05/11 06:06:50;;;;;;;4.47;1.95;;;;;;;11.83;47.17;99836.34;4927515;28;20500;-89
2023/05/11 06:09:16;;;;;;;4.70;1.80;;;;;;;11.84;46.90;99825.28;4941799;28;20038;-90
2023/05/11 06:11:41;;;;;;;5.70;2.35;;;;;;;11.99;46.99;99811.03;4958095;28;20040;-90
2023/05/11 06:14:07;;;;;;;3.25;1.77;;;;;;;12.13;47.26;99816.75;4941793;28;20026;-90
2023/05/11 06:16:32;;;;;;;2.55;1.70;;;;;;;12.14;47.15;99807.59;4974881;28;20040;-89
2023/05/11 06:18:58;;;;;;;3.28;1.77;;;;;;;12.40;46.00;99815.69;4956249;28;20071;-90
2023/05/11 06:21:23;;;;;;;2.50;1.60;;;;;;;12.37;47.15;99805.41;4974786;28;20043;-92
2023/05/11 06:23:49;;;;;;;3.05;1.80;;;;;;;12.35;47.37;99816.50;4940549;28;20052;-90
2023/05/11 06:26:15;;;;;;;2.80;1.95;;;;;;;12.34;46.95;99809.47;4958238;28;20029;-91
2023/05/11 06:28:40;;;;;;;2.50;1.67;;;;;;;12.49;46.15;99825.69;4979232;28;20034;-96
2023/05/11 06:31:06;;;;;;;3.72;1.58;;;;;;;12.43;45.03;99812.44;4961426;28;20489;-94
2023/05/11 06:33:31;;;;;;;3.50;2.00;;;;;;;12.45;45.44;99810.28;4944915;28;20113;-94
2023/05/11 06:35:59;;;;;;;3.25;1.85;;;;;;;12.48;45.69;99817.88;4946850;28;20113;-94
2023/05/11 06:38:28;;;;;;;4.28;1.80;;;;;;;12.53;45.48;99807.88;4932999;28;20033;-95
2023/05/11 06:41:05;;;;;;;5.25;1.80;;;;;;;12.71;45.34;99809.19;4965203;28;20091;-94
2023/05/11 06:43:36;;;;;;;2.78;1.83;;;;;;;12.78;45.16;99810.81;4973855;28;20015;-95
2023/05/11 06:46:15;;;;;;;10.05;2.03;;;;;;;12.92;45.17;99833.50;4948426;28;20030;-96
2023/05/11 06:48:41;;;;;;;2.58;1.75;;;;;;;12.87;45.35;99796.50;4962451;28;20491;-93
2023/05/11 06:51:10;;;;;;;8.98;3.38;;;;;;;13.05;44.90;99811.31;4960415;28;20022;-93
2023/05/11 06:53:35;;;;;;;2.78;1.90;;;;;;;13.15;44.73;99805.06;4961206;28;20038;-95
2023/05/11 06:56:04;;;;;;;11.65;5.05;;;;;;;13.28;43.68;99811.78;4941806;28;20023;-93
2023/05/11 06:58:30;;;;;;;4.43;1.85;;;;;;;13.34;43.75;99808.84;4954383;28;20638;-94
2023/05/11 07:00:56;;;;;;;6.57;1.60;;;;;;;13.30;43.64;99805.06;4946170;28;20035;-91
2023/05/11 07:03:22;;;;;;;2.33;1.67;;;;;;;13.42;43.94;99820.16;4962877;28;20034;-94
2023/05/11 07:05:50;;;;;;;2.90;1.58;;;;;;;13.41;43.36;99802.31;4950170;28;20023;-94
2023/05/11 07:08:16;;;;;;;3.17;1.70;;;;;;;13.49;43.11;99804.47;4948242;28;20050;-94
2023/05/11 07:10:41;;;;;;;2.50;1.40;;;;;;;13.63;42.98;99812.75;4930468;28;20043;-94
2023/05/11 07:13:18;;;;;;;3.83;1.85;;;;;;;13.80;42.93;99823.22;4932306;28;20027;-96
2023/05/11 07:15:44;;;;;;;6.20;2.72;;;;;;;13.76;43.77;99795.94;4947267;28;20034;-95
2023/05/11 07:18:17;;;;;;;4.43;2.88;;;;;;;14.08;42.24;99825.25;4930539;28;20023;-93
2023/05/11 07:20:43;;;;;;;6.05;2.90;;;;;;;14.21;42.79;99815.66;4947280;28;20085;-95
2023/05/11 07:23:41;;;;;;;6.53;2.65;;;;;;;14.33;42.09;99812.63;4930130;28;20554;-95
2023/05/11 07:26:10;;;;;;;2.60;1.60;;;;;;;14.51;41.11;99819.25;4959316;28;20412;-95
2023/05/11 07:28:46;;;;;;;4.40;2.35;;;;;;;14.46;40.35;99805.75;4946850;28;20472;-96
2023/05/11 07:31:21;;;;;;;;;;;;;;;;;;;;;
2023/05/11 07:34:07;;;;;;;6.97;2.35;;;;;;;14.67;41.09;99817.25;4950678;28;20493;-96
2023/05/11 07:40:06;;;;;;;2.03;1.55;;;;;;;14.90;39.94;99804.81;5334721;23;20066;-95
2023/05/11 07:42:31;;;;;;;4.88;1.67;;;;;;;14.85;40.53;99794.03;4954409;28;20479;-94
2023/05/11 07:45:23;;;;;;;4.78;1.75;;;;;;;15.24;39.79;99814.81;4947408;28;20014;-94
2023/05/11 07:47:56;;;;;;;3.33;2.08;;;;;;;15.14;39.64;99783.16;4962921;28;20494;-95
2023/05/11 07:50:22;;;;;;;9.85;4.47;;;;;;;15.29;38.94;99777.56;4936412;28;20030;-95
2023/05/11 07:52:48;;;;;;;2.72;1.80;;;;;;;15.49;38.45;99792.78;4955563;28;20054;-95
2023/05/11 07:55:14;;;;;;;5.68;2.00;;;;;;;15.64;38.16;99807.25;4934232;28;20093;-95
2023/05/11 07:57:53;;;;;;;2.88;1.88;;;;;;;15.67;37.59;99793.91;4937788;28;20520;-96
2023/05/11 08:00:26;;;;;;;2.17;1.58;;;;;;;15.89;37.37;99811.56;4936578;28;20066;-95
2023/05/11 08:03:03;;;;;;;5.78;1.63;;;;;;;15.77;36.90;99784.84;4933171;28;20022;-94
2023/05/11 08:05:39;;;;;;;3.67;2.03;;;;;;;16.08;36.91;99825.16;4951378;28;20034;-94
2023/05/11 08:08:07;;;;;;;1.90;1.63;;;;;;;15.97;35.42;99808.19;4935136;28;20555;-95
2023/05/11 08:20:44;;;;;;;2.57;1.60;;;;;;;16.04;36.53;99778.78;4905170;29;20336;-96
2023/05/11 08:26:32;;;;;;;4.32;1.63;;;;;;;16.41;37.13;99787.16;4922977;29;20082;-95
2023/05/11 08:29:00;;;;;;;2.72;1.65;;;;;;;16.60;34.97;99787.09;4907474;29;20442;-95
2023/05/11 08:31:26;;;;;;;1.83;1.20;;;;;;;16.63;34.25;99781.88;4936741;28;20062;-95
2023/05/11 08:33:51;;;;;;;2.83;1.75;;;;;;;16.70;33.92;99782.28;4950243;28;20041;-95
2023/05/11 08:36:17;;;;;;;6.90;1.63;;;;;;;16.86;33.83;99791.03;4951079;28;20029;-95
2023/05/11 08:38:43;;;;;;;3.45;2.00;;;;;;;16.85;34.40;99769.56;4949635;28;20030;-94
2023/05/11 08:41:13;;;;;;;4.15;1.45;;;;;;;16.50;32.99;99747.31;4952243;28;20077;-96
2023/05/11 08:43:45;;;;;;;4.85;1.52;;;;;;;16.69;32.47;99775.25;4952179;28;20058;-96
2023/05/11 08:46:13;;;;;;;7.43;2.63;;;;;;;16.90;33.54;99793.94;4950196;28;20093;-93
2023/05/11 08:48:58;;;;;;;2.28;1.40;;;;;;;16.59;31.40;99764.56;4950884;28;20029;-95
2023/05/11 08:51:27;;;;;;;9.75;1.70;;;;;;;16.96;32.20;99777.22;4953088;28;20034;-95
2023/05/11 08:53:55;;;;;;;3.63;2.30;;;;;;;17.05;32.13;99771.91;4950946;28;20034;-93
2023/05/11 08:56:25;;;;;;;4.82;1.63;;;;;;;17.09;31.34;99759.31;4969742;28;20030;-96
2023/05/11 08:59:12;;;;;;;3.78;2.15;;;;;;;17.02;32.94;99750.75;4974685;28;20022;-95
2023/05/11 09:01:44;;;;;;;4.70;1.60;;;;;;;17.30;31.53;99784.19;4973454;28;20045;-96
2023/05/11 09:04:16;;;;;;;2.78;1.60;;;;;;;17.32;31.64;99765.63;4953241;28;20022;-96
2023/05/11 09:06:47;;;;;;;3.38;1.50;;;;;;;17.33;31.58;99741.97;4949265;28;20408;-96
2023/05/11 09:09:23;;;;;;;2.23;1.60;;;;;;;17.49;31.07;99742.44;4949640;28;20488;-96
2023/05/11 09:11:55;;;;;;;2.30;1.23;;;;;;;17.43;31.36;99735.47;4968681;28;20477;-96
2023/05/11 09:14:20;;;;;;;2.30;1.70;;;;;;;17.57;31.94;99755.31;4950142;28;20056;-96
2023/05/11 09:16:57;;;;;;;4.45;2.65;;;;;;;17.49;32.39;99747.88;4953840;28;20030;-96
2023/05/11 09:19:25;;;;;;;2.70;1.70;;;;;;;17.60;30.30;99751.19;4962366;28;20096;-94
2023/05/11 09:21:52;;;;;;;5.07;1.90;;;;;;;17.59;30.18;99755.81;4966718;28;20050;-95
2023/05/11 09:24:27;;;;;;;1.85;1.30;;;;;;;17.53;30.59;99746.94;4966240;28;20030;-95
2023/05/11 09:27:31;;;;;;;2.28;1.10;;;;;;;17.73;30.42;99763.97;4948099;28;20416;-95
2023/05/11 09:30:47;;;;;;;1.98;1.38;;;;;;;17.58;30.53;99751.50;4954630;28;20030;-94
2023/05/11 09:33:10;;;;;;;2.50;1.63;;;;;;;17.52;30.35;99729.03;4957940;28;20388;-95
2023/05/11 09:39:02;;;;;;;;;;;;;;;;;;;;;
2023/05/11 09:41:38;;;;;;;2.38;1.70;;;;;;;17.82;31.06;99742.25;4953198;28;20117;-95
2023/05/11 09:44:29;;;;;;;2.65;1.13;;;;;;;17.95;29.81;99752.31;4929248;28;20034;-95
2023/05/11 09:46:55;;;;;;;3.10;1.63;;;;;;;17.66;30.91;99726.28;4954958;28;20043;-95
2023/05/11 09:49:20;;;;;;;1.80;1.15;;;;;;;17.78;30.74;99734.72;4962768;28;20120;-95
2023/05/11 09:51:59;;;;;;;4.20;1.80;;;;;;;17.83;31.34;99722.13;4951305;28;20018;-95
2023/05/11 09:54:34;;;;;;;;;;;;;;;;;;;;;
2023/05/11 09:57:13;;;;;;;;;;;;;;;;;;;;;
2023/05/11 09:59:42;;;;;;;2.65;1.70;;;;;;;18.12;31.10;99716.25;4950791;28;20141;-95
2023/05/11 10:02:24;;;;;;;4.18;1.92;;;;;;;18.33;30.95;99727.44;4930719;28;20019;-94
2023/05/11 10:04:59;;;;;;;8.95;5.07;;;;;;;18.17;30.98;99716.09;4945576;28;20027;-94
2023/05/11 10:07:32;;;;;;;13.52;3.55;;;;;;;18.16;32.60;99717.22;4930890;28;20110;-94
2023/05/11 10:10:08;;;;;;;2.90;1.73;;;;;;;18.23;31.61;99712.13;4928825;28;20097;-93
2023/05/11 10:13:02;;;;;;;4.55;2.05;;;;;;;18.31;30.96;99713.31;4927896;28;20045;-94
2023/05/11 10:15:30;;;;;;;6.38;2.10;;;;;;;18.11;31.39;99707.25;4946384;28;20035;-91
2023/05/11 10:17:59;;;;;;;5.57;2.13;;;;;;;18.24;32.38;99730.13;4927457;28;20031;-94
2023/05/11 10:20:35;;;;;;;5.70;1.52;;;;;;;18.25;32.55;99706.38;4929365;28;20031;-95
2023/05/11 10:23:01;;;;;;;5.78;1.58;;;;;;;18.42;31.45;99706.47;4928861;28;20033;-95
2023/05/11 10:25:47;;;;;;;2.90;1.67;;;;;;;18.46;31.91;99695.75;4931364;28;20030;-96
2023/05/11 10:28:22;;;;;;;2.88;1.30;;;;;;;18.56;31.19;99690.81;4963109;28;20038;-96
2023/05/11 10:30:51;;;;;;;2.78;1.40;;;;;;;18.59;30.59;99678.47;4931032;28;20029;-96
2023/05/11 10:33:20;;;;;;;6.03;2.30;;;;;;;18.66;31.13;99688.97;4939794;28;20574;-94
2023/05/11 10:35:45;;;;;;;3.92;2.28;;;;;;;18.90;32.36;99705.75;4928479;29;20050;-95
2023/05/11 10:38:15;;;;;;;5.60;3.10;;;;;;;18.90;32.40;99707.69;4928059;29;20098;-95
2023/05/11 10:40:51;;;;;;;5.78;1.77;;;;;;;18.82;30.61;99695.59;4958511;28;20043;-96
2023/05/11 10:46:52;;;;;;;3.63;1.08;;;;;;;19.05;30.92;99703.69;4984946;28;20057;-96
2023/05/11 10:49:41;;;;;;;1.70;1.38;;;;;;;19.09;31.19;99713.69;4967107;28;20030;-95
2023/05/11 10:52:19;;;;;;;2.78;1.75;;;;;;;19.29;31.03;99708.75;4980517;28;20023;-95
2023/05/11 10:55:06;;;;;;;16.45;8.07;;;;;;;19.24;31.06;99685.16;4944306;29;20043;-95
2023/05/11 10:57:31;;;;;;;9.05;2.65;;;;;;;19.52;31.18;99715.69;4950764;29;20039;-96
2023/05/11 11:00:34;;;;;;;2.97;1.23;;;;;;;19.46;30.51;99702.50;4945987;29;20083;-94
2023/05/11 11:07:05;;;;;;;1.98;1.30;;;;;;;19.96;30.17;99721.19;4853643;29;20048;-95
2023/05/11 11:10:09;;;;;;;5.47;2.10;;;;;;;20.18;29.59;99714.75;4862166;29;20029;-95
2023/05/11 11:13:00;;;;;;;2.20;1.52;;;;;;;20.31;29.74;99696.53;4912072;29;20027;-94
2023/05/11 11:22:53;;;;;;;5.88;3.15;;;;;;;20.75;29.91;99681.63;4905897;29;20056;-95
2023/05/11 11:25:53;;;;;;;8.40;3.20;;;;;;;20.86;29.44;99705.88;4867566;29;20041;-95
2023/05/11 11:29:37;;;;;;;3.33;1.30;;;;;;;20.85;28.19;99690.59;4914968;29;20060;-96
2023/05/11 11:32:32;;;;;;;3.25;1.35;;;;;;;21.06;29.31;99705.13;4851204;29;20030;-95
2023/05/11 11:35:41;;;;;;;2.38;1.38;;;;;;;20.98;29.20;99686.81;4865932;29;20578;-96
2023/05/11 11:38:09;;;;;;;4.50;1.73;;;;;;;20.92;29.89;99669.78;4898586;29;20099;-96
2023/05/11 11:41:12;;;;;;;2.83;1.35;;;;;;;21.28;28.49;99692.28;4898628;29;20072;-96
2023/05/11 11:43:54;;;;;;;2.67;1.60;;;;;;;21.30;29.33;99677.09;4925370;29;20039;-95
2023/05/11 11:47:32;;;;;;;;;;;;;;;;;;;;;
2023/05/11 11:54:13;;;;;;;;;;;;;;;;;;;;;
2023/05/11 11:57:00;;;;;;;2.92;1.50;;;;;;;21.29;27.53;99653.59;5009206;28;20066;-96
2023/05/11 11:59:52;;;;;;;3.05;1.63;;;;;;;21.30;28.23;99659.88;4973978;28;20511;-96
2023/05/11 12:05:57;;;;;;;;;;;;;;;;;;;;;
2023/05/11 12:19:10;;;;;;;7.10;5.18;;;;;;;20.86;28.06;99651.16;5002724;28;20054;-96
2023/05/11 12:22:16;;;;;;;;;;;;;;;;;;;;;
2023/05/11 12:28:51;;;;;;;;;;;;;;;;;;;;;
2023/05/11 12:31:27;;;;;;;5.75;2.00;;;;;;;20.96;28.96;99628.88;4963095;28;20034;-94
2023/05/11 12:40:41;;;;;;;1.77;1.38;;;;;;;20.34;29.93;99633.78;5050965;23;20128;-96
2023/05/11 12:43:30;;;;;;;2.63;1.45;;;;;;;20.36;29.39;99644.41;4981244;28;20053;-95
2023/05/11 12:46:12;;;;;;;;;;;;;;;;;;;;;
2023/05/11 12:48:59;;;;;;;3.38;2.20;;;;;;;20.27;29.69;99630.75;4993160;28;20467;-96
2023/05/11 12:51:51;;;;;;;3.97;2.00;;;;;;;20.54;29.21;99643.22;4992476;28;20038;-95
2023/05/11 13:01:54;;;;;;;27.08;19.20;;;;;;;20.78;28.66;99600.78;4982934;28;20042;-96
2023/05/11 13:04:31;;;;;;;;;;;;;;;21.12;29.56;99627.13;4969499;28;20058;-95
2023/05/11 13:11:12;;;;;;;;;;;;;;;;;;;;;
2023/05/11 13:13:41;;;;;;;2.67;1.98;;;;;;;21.35;28.44;99608.44;4889616;28;20099;-91
2023/05/11 13:16:11;;;;;;;2.30;1.50;;;;;;;21.53;27.45;99609.13;4942191;28;20092;-93
2023/05/11 13:19:02;;;;;;;2.25;1.40;;;;;;;21.44;28.02;99604.88;4923833;28;20035;-93
2023/05/11 13:21:28;;;;;;;6.05;1.60;;;;;;;21.62;27.95;99613.72;4957046;28;20046;-95
2023/05/11 13:23:57;;;;;;;7.03;2.25;;;;;;;21.47;27.14;99598.69;4925805;29;20031;-95
2023/05/11 13:26:27;;;;;;;5.53;2.40;;;;;;;21.73;26.64;99612.97;4927110;28;20049;-93
2023/05/11 13:28:53;;;;;;;2.60;1.50;;;;;;;21.77;26.64;99602.13;4954631;28;20120;-93
2023/05/11 13:31:18;;;;;;;2.35;1.52;;;;;;;21.93;26.84;99600.34;4966457;28;20519;-94
2023/05/11 13:34:00;;;;;;;5.20;2.10;;;;;;;22.17;27.42;99609.78;4956783;28;20029;-95
2023/05/11 13:36:29;;;;;;;3.50;1.70;;;;;;;22.08;26.92;99600.81;4956451;28;20105;-92
2023/05/11 13:38:54;;;;;;;5.05;2.20;;;;;;;21.92;27.31;99590.53;4976967;28;20073;-94
2023/05/11 13:41:23;;;;;;;7.13;1.95;;;;;;;21.88;27.20;99611.53;4947909;28;20058;-94
2023/05/11 13:43:49;;;;;;;7.28;2.47;;;;;;;21.84;27.95;99587.88;4959574;28;20038;-92
2023/05/11 13:46:17;;;;;;;6.57;2.47;;;;;;;21.68;27.35;99607.69;4953065;28;20050;-93
2023/05/11 13:49:18;;;;;;;4.90;2.42;;;;;;;21.22;27.71;99587.59;4960540;28;20045;-95
2023/05/11 13:52:42;;;;;;;;;;;;;;;;;;;;;
2023/05/11 13:55:25;;;;;;;3.72;2.03;;;;;;;21.65;26.60;99616.59;4975181;28;20120;-91
2023/05/11 14:01:17;;;;;;;6.20;4.22;;;;;;;21.40;26.60;99612.91;4969178;28;20034;-91
2023/05/11 14:03:46;;;;;;;3.60;2.30;;;;;;;21.27;27.00;99622.19;4939165;28;20053;-94
2023/05/11 14:06:22;;;;;;;;;;;;;;;;;;;;;
2023/05/11 14:08:55;;;;;;;4.15;2.03;;;;;;;20.68;27.48;99628.53;4970826;28;20093;-90
2023/05/11 14:11:23;;;;;;;2.50;1.77;;;;;;;20.18;28.19;99619.03;4948069;28;20083;-96
2023/05/11 14:13:52;;;;;;;7.95;2.58;;;;;;;20.28;28.22;99596.81;4931931;28;20035;-92
2023/05/11 14:16:32;;;;;;;3.92;2.17;;;;;;;20.26;29.17;99610.00;4948629;28;20057;-93
2023/05/11 14:19:25;;;;;;;4.40;2.65;;;;;;;20.23;29.16;99634.47;4954543;28;20101;-94